Latest Weather Observations for Strahan

IDT60801

Issued at 8:31 pm EST Sunday 25 September 2016 (issued every 30 minutes, with the page automatically refreshed every 10 minutes)

About weather observations | Map of weather stations | Latest weather observations for TAS | Other Formats
Station Details ID: 097072 Name: STRAHAN AERODROME Lat: -42.16 Lon: 145.29 Height: 21.0 m
Data from the previous 72 hours. | See also: Recent months at Strahan
Date/Time
EST
Temp
°C
App
Temp
°C
Dew
Point
°C
Rel
Hum
%
Delta-T
°C
Wind Press
QNH
hPa
Press
MSL
hPa
Rain since
9am
mm
Dir  Spd
km/h
Gust
km/h
Spd
kts
Gust
kts
25/08:30pm 8.6 5.0 2.8 67 2.5 WNW 11 15 6 8 1011.3 1011.4 1.4
25/08:00pm 9.2 5.8 4.0 70 2.3 W 11 17 6 9 1011.1 1011.2 1.4
25/07:30pm 9.4 6.5 4.6 72 2.1 NW 9 15 5 8 1010.9 1011.0 1.4
25/07:00pm 9.6 5.5 4.2 69 2.4 WNW 15 22 8 12 1010.5 1010.6 1.4
25/06:30pm 9.5 5.0 4.1 69 2.4 WNW 17 22 9 12 1010.2 1010.3 1.4
25/06:00pm 10.2 5.6 3.7 64 2.9 WNW 17 24 9 13 1009.8 1009.9 1.4
25/05:30pm 11.0 7.7 4.5 64 2.9 NW 11 15 6 8 1009.5 1009.6 1.4
25/05:00pm 10.3 6.0 3.1 61 3.1 WNW 15 20 8 11 1009.4 1009.5 1.4
25/04:30pm 12.2 7.0 3.7 56 3.8 W 20 26 11 14 1009.2 1009.3 1.4
25/04:00pm 12.5 6.9 3.5 54 4.0 W 22 28 12 15 1008.9 1009.0 1.4
25/03:30pm 12.9 7.1 4.3 56 3.9 W 24 30 13 16 1008.7 1008.8 1.4
25/03:00pm 12.8 7.7 4.3 56 3.9 W 20 30 11 16 1008.6 1008.7 1.4
25/02:30pm 13.2 7.3 4.1 54 4.1 W 24 33 13 18 1008.4 1008.5 1.4
25/02:00pm 12.0 6.0 5.2 63 3.1 W 26 35 14 19 1008.2 1008.3 1.4
25/01:30pm 13.8 8.0 6.2 60 3.6 W 26 33 14 18 1008.0 1008.1 1.2
25/01:00pm 13.1 7.1 5.5 60 3.6 W 26 32 14 17 1008.0 1008.1 1.2
25/12:30pm 12.6 7.4 5.5 62 3.3 WSW 22 35 12 19 1007.9 1008.0 1.2
25/12:00pm 13.0 7.5 7.5 69 2.7 WSW 26 35 14 19 1007.6 1007.7 1.2
25/11:30am 10.5 5.2 6.8 78 1.7 SW 24 39 13 21 1007.4 1007.5 1.2
25/11:00am 11.4 6.8 6.5 72 2.3 WSW 20 30 11 16 1007.2 1007.3 0.8
25/10:30am 10.9 6.7 7.4 79 1.7 SW 19 26 10 14 1006.9 1007.0 0.8
25/10:11am 10.9 8.9 8.8 87 1.0 SSW 9 13 5 7 1006.8 1006.9 0.8
25/10:00am 9.1 4.1 6.4 83 1.3 WSW 22 43 12 23 1006.8 1006.9 0.8
25/09:55am 8.8 2.8 5.2 78 1.6 WSW 26 43 14 23 1006.9 1007.0 0.8
25/09:30am 10.7 5.5 5.7 71 2.3 WSW 22 30 12 16 1006.5 1006.6 0.0
25/09:00am 11.4 5.5 5.7 68 2.7 WSW 26 33 14 18 1006.2 1006.3 6.4
25/08:30am 10.6 5.6 6.6 76 1.9 WSW 22 33 12 18 1005.9 1006.0 6.4
25/08:00am 9.8 5.7 6.0 77 1.8 W 17 22 9 12 1005.6 1005.7 6.4
25/07:30am 9.5 5.4 6.2 80 1.5 W 17 24 9 13 1005.2 1005.2 6.4
25/07:00am 9.3 5.3 6.7 84 1.2 W 17 26 9 14 1005.0 1005.0 6.4
25/06:30am 8.6 5.3 6.4 86 1.0 WNW 13 19 7 10 1004.5 1004.5 6.0
25/06:02am 8.1 1.7 5.0 81 1.4 W 28 46 15 25 1004.3 1004.3 6.0
25/06:00am 8.2 1.4 5.1 81 1.4 W 30 46 16 25 1004.3 1004.3 6.0
25/05:56am 8.4 1.9 4.8 78 1.6 W 28 46 15 25 1004.3 1004.3 6.0
25/05:30am 9.5 4.1 6.4 81 1.4 W 24 32 13 17 1003.9 1003.9 6.0
25/05:00am 9.8 4.6 7.2 84 1.2 W 24 32 13 17 1003.8 1003.8 6.0
25/04:30am 10.4 5.5 7.1 80 1.6 WNW 22 37 12 20 1003.3 1003.3 6.0
25/04:00am 10.4 4.5 7.6 83 1.4 W 28 46 15 25 1002.9 1002.9 6.0
25/03:30am 10.4 4.3 8.2 86 1.1 W 30 41 16 22 1002.1 1002.1 6.0
25/03:00am 10.5 4.2 8.9 90 0.8 W 32 44 17 24 1001.7 1001.7 6.0
25/02:33am 10.9 4.7 9.5 91 0.7 W 32 52 17 28 1001.2 1001.2 6.0
25/02:31am 11.1 5.4 9.7 91 0.7 W 30 39 16 21 1001.2 1001.2 6.0
25/02:30am 11.1 5.4 9.7 91 0.7 W 30 41 16 22 1001.1 1001.1 6.0
25/02:06am 11.4 6.5 10.1 92 0.7 WNW 26 37 14 20 1000.8 1000.8 5.4
25/02:00am 11.4 7.3 10.0 91 0.7 NNW 22 37 12 20 1000.9 1000.9 5.2
25/01:53am 11.3 8.1 9.9 91 0.7 N 17 24 9 13 1000.7 1000.7 4.6
25/01:30am 11.3 8.5 9.9 91 0.7 N 15 24 8 13 1000.5 1000.5 3.0
25/01:00am 11.2 7.3 9.6 90 0.8 NNE 20 30 11 16 1000.6 1000.6 3.0
25/12:30am 11.3 7.6 9.6 89 0.9 NNE 19 32 10 17 1000.9 1000.9 2.2
25/12:00am 11.3 7.4 9.4 88 1.0 NNE 20 32 11 17 1001.2 1001.2 1.8
 
Date/Time
EST
Temp
°C
App
Temp
°C
Dew
Point
°C
Rel
Hum
%
Delta-T
°C
Wind Press
QNH
hPa
Press
MSL
hPa
Rain since
9am
mm
Dir  Spd
km/h
Gust
km/h
Spd
kts
Gust
kts
24/11:30pm 11.3 7.4 9.4 88 1.0 NNE 20 32 11 17 1001.4 1001.4 1.6
24/11:00pm 11.4 8.4 9.3 87 1.1 NNE 15 24 8 13 1001.9 1001.9 1.0
24/10:30pm 11.8 9.1 9.0 83 1.4 N 13 22 7 12 1002.3 1002.3 0.6
24/10:00pm 12.6 8.4 8.3 75 2.1 N 20 30 11 16 1002.5 1002.5 0.0
24/09:30pm 13.4 9.1 7.2 66 3.0 NNE 19 28 10 15 1002.5 1002.5 0.0
24/09:00pm 13.8 10.1 6.4 61 3.6 NNE 15 26 8 14 1002.7 1002.7 0.0
24/08:30pm 14.0 9.0 6.4 60 3.7 NNE 22 35 12 19 1002.9 1002.9 0.0
24/08:00pm 14.0 9.4 6.4 60 3.7 NNE 20 32 11 17 1002.9 1002.9 0.0
24/07:30pm 14.2 9.7 6.3 59 3.8 NNE 19 30 10 16 1002.9 1002.9 0.0
24/07:00pm 14.5 10.1 6.6 59 3.8 NNE 19 26 10 14 1002.8 1002.8 0.0
24/06:30pm 15.0 10.5 6.8 58 4.0 NNE 20 43 11 23 1002.9 1002.9 0.0
24/06:00pm 15.3 10.5 7.3 59 4.0 NNE 22 39 12 21 1003.0 1003.0 0.0
24/05:30pm 15.6 11.2 7.4 58 4.1 N 20 32 11 17 1003.0 1003.0 0.0
24/05:00pm 16.6 11.4 7.3 54 4.7 N 24 37 13 20 1003.3 1003.3 0.0
24/04:30pm 17.5 12.7 7.3 51 5.1 N 22 35 12 19 1003.2 1003.2 0.0
24/04:00pm 19.2 13.9 7.0 45 6.2 N 24 37 13 20 1003.3 1003.3 0.0
24/03:30pm 19.6 14.3 7.0 44 6.4 N 24 35 13 19 1003.1 1003.1 0.0
24/03:03pm 20.5 14.8 8.2 45 6.4 N 28 46 15 25 1003.2 1003.2 0.0
24/03:00pm 20.0 13.2 7.7 45 6.4 N 33 46 18 25 1003.1 1003.1 0.0
24/02:30pm 18.3 13.4 7.1 48 5.6 N 22 35 12 19 1003.4 1003.4 0.0
24/02:00pm 18.5 11.8 7.3 48 5.7 N 32 44 17 24 1003.7 1003.7 0.0
24/01:30pm 18.1 12.5 7.2 49 5.5 N 26 44 14 24 1004.0 1004.0 0.0
24/01:20pm 19.3 13.7 8.6 50 5.6 N 28 46 15 25 1004.0 1004.0 0.0
24/01:00pm 18.0 12.2 8.0 52 5.1 N 28 41 15 22 1004.5 1004.5 0.0
24/12:30pm 19.6 15.0 9.5 52 5.4 N 24 37 13 20 1004.9 1004.9 0.0
24/12:00pm 18.0 13.7 9.4 57 4.5 N 22 32 12 17 1005.3 1005.3 0.0
24/11:37am 17.6 11.7 9.0 57 4.5 N 30 48 16 26 1005.5 1005.6 0.0
24/11:30am 18.6 13.5 9.1 54 5.0 N 26 43 14 23 1005.7 1005.8 0.0
24/11:15am 18.2 12.6 8.7 54 4.9 N 28 48 15 26 1005.9 1006.0 0.0
24/11:00am 17.9 13.1 9.0 56 4.6 N 24 39 13 21 1006.1 1006.2 0.0
24/10:30am 18.7 13.8 9.8 56 4.7 N 26 43 14 23 1006.4 1006.5 0.0
24/10:00am 18.1 13.5 9.7 58 4.4 NNE 24 41 13 22 1006.7 1006.8 0.0
24/09:30am 17.4 13.7 9.3 59 4.2 NNE 19 30 10 16 1007.3 1007.4 0.0
24/09:00am 15.4 12.8 7.9 61 3.8 NE 11 17 6 9 1007.7 1007.8 0.2
24/08:30am 14.3 11.4 8.0 66 3.1 N 13 20 7 11 1008.2 1008.3 0.2
24/08:00am 12.2 9.9 8.9 80 1.7 NNW 11 15 6 8 1008.6 1008.7 0.2
24/07:30am 10.0 7.5 6.5 79 1.6 ENE 9 11 5 6 1008.6 1008.7 0.2
24/07:00am 8.5 5.8 5.4 81 1.4 NE 9 11 5 6 1008.9 1009.0 0.2
24/06:30am 8.2 6.5 5.7 84 1.1 NE 4 9 2 5 1008.9 1009.0 0.2
24/06:00am 8.8 6.5 5.9 82 1.3 NE 7 9 4 5 1008.7 1008.8 0.2
24/05:30am 8.9 6.8 6.5 85 1.1 N 7 11 4 6 1009.0 1009.1 0.2
24/05:00am 8.7 6.3 7.0 89 0.8 NNE 9 11 5 6 1009.1 1009.2 0.2
24/04:30am 8.0 5.6 6.8 92 0.6 NE 9 15 5 8 1009.1 1009.2 0.2
24/04:00am 7.8 5.9 6.9 94 0.4 NNE 6 7 3 4 1009.4 1009.5 0.2
24/03:30am 8.1 6.3 7.2 94 0.4 SSE 6 7 3 4 1009.5 1009.6 0.2
24/03:00am 7.7 6.2 6.8 94 0.4 SE 4 9 2 5 1009.9 1010.0 0.2
24/02:30am 7.6 5.1 6.7 94 0.4 SE 9 11 5 6 1010.2 1010.3 0.2
24/02:00am 6.8 4.5 5.9 94 0.4 E 7 9 4 5 1010.7 1010.8 0.2
24/01:30am 6.7 4.4 5.7 93 0.4 E 7 9 4 5 1011.2 1011.3 0.2
24/01:00am 6.6 5.2 5.6 93 0.4 ENE 2 7 1 4 1011.5 1011.6 0.2
24/12:30am 6.4 4.2 5.2 92 0.5 NE 6 9 3 5 1011.6 1011.7 0.2
24/12:00am 6.9 4.8 5.8 93 0.5 NNE 6 7 3 4 1011.7 1011.8 0.2
 
Date/Time
EST
Temp
°C
App
Temp
°C
Dew
Point
°C
Rel
Hum
%
Delta-T
°C
Wind Press
QNH
hPa
Press
MSL
hPa
Rain since
9am
mm
Dir  Spd
km/h
Gust
km/h
Spd
kts
Gust
kts
23/11:30pm 7.5 5.3 6.4 93 0.5 NE 7 11 4 6 1011.9 1012.0 0.2
23/11:00pm 7.1 4.5 6.0 93 0.5 N 9 13 5 7 1012.3 1012.4 0.2
23/10:30pm 7.5 5.3 6.3 92 0.5 ENE 7 7 4 4 1012.5 1012.6 0.2
23/10:00pm 7.9 6.0 6.7 92 0.6 NNE 6 7 3 4 1012.7 1012.8 0.2
23/09:30pm 8.2 5.8 7.0 92 0.6 NNE 9 11 5 6 1012.8 1012.9 0.2
23/09:00pm 8.0 5.9 6.6 91 0.6 N 7 9 4 5 1013.2 1013.3 0.2
23/08:30pm 8.6 6.8 7.2 91 0.7 NE 6 7 3 4 1013.3 1013.4 0.2
23/08:00pm 8.7 6.3 7.2 90 0.7 N 9 9 5 5 1013.4 1013.5 0.2
23/07:30pm 9.7 7.5 7.8 88 0.9 NNE 9 9 5 5 1013.4 1013.5 0.2
23/07:00pm 10.3 8.7 8.2 87 1.0 WNW 6 7 3 4 1013.4 1013.5 0.2
23/06:30pm 11.2 10.0 8.2 82 1.5 WSW 4 6 2 3 1013.2 1013.3 0.2
23/06:00pm 12.6 11.0 8.1 74 2.2 WSW 6 7 3 4 1013.3 1013.4 0.2
23/05:30pm 13.4 10.9 8.3 71 2.5 WSW 11 13 6 7 1013.1 1013.2 0.2
23/05:00pm 14.3 12.3 8.5 68 2.9 WSW 9 13 5 7 1013.0 1013.1 0.2
23/04:30pm 14.5 11.7 8.5 67 3.0 WSW 13 19 7 10 1012.9 1013.0 0.2
23/04:00pm 14.8 11.5 8.1 64 3.4 WSW 15 20 8 11 1012.8 1012.9 0.2
23/03:30pm 15.6 12.4 8.6 63 3.6 WSW 15 20 8 11 1013.0 1013.1 0.2
23/03:00pm 15.4 11.4 8.4 63 3.5 W 19 26 10 14 1013.2 1013.3 0.2
23/02:30pm 16.2 12.5 9.4 64 3.5 WSW 19 28 10 15 1013.3 1013.4 0.2
23/02:00pm 16.2 12.3 9.4 64 3.5 WSW 20 26 11 14 1013.4 1013.5 0.2
23/01:30pm 15.8 12.8 9.2 65 3.4 SSE 15 19 8 10 1013.6 1013.7 0.2
23/01:00pm 15.5 12.8 9.0 65 3.3 SSE 13 20 7 11 1014.0 1014.1 0.2
23/12:30pm 15.5 12.8 9.0 65 3.3 SSE 13 20 7 11 1014.5 1014.6 0.2
23/12:00pm 15.3 13.1 9.4 68 3.0 SSE 11 17 6 9 1014.9 1015.0 0.0
23/11:30am 14.0 11.6 8.8 71 2.6 SSE 11 17 6 9 1015.4 1015.5 0.0
23/11:00am 14.1 12.5 8.7 70 2.7 NNW 7 13 4 7 1015.9 1015.9 0.0
23/10:30am 13.2 11.7 8.3 72 2.4 SE 6 11 3 6 1016.5 1016.5 0.0
23/10:25am 13.2 11.8 8.9 75 2.2 SSE 6 11 3 6 1016.6 1016.6 0.0
23/10:00am 11.9 10.6 7.8 76 2.0 SSW 4 7 2 4 1017.0 1017.0 0.0
23/09:30am 11.7 10.1 8.2 79 1.7 WSW 6 9 3 5 1017.4 1017.4 0.0
23/09:22am 11.7 10.1 8.2 79 1.7 W 6 9 3 5 1017.4 1017.4 0.0
23/09:00am 11.4 9.7 7.5 77 1.9 N 6 9 3 5 1017.5 1017.5 0.2
23/08:30am 11.3 9.7 7.8 79 1.7 ENE 6 13 3 7 1017.5 1017.5 0.2
23/08:00am 10.8 9.4 8.9 88 0.9 NNE 6 9 3 5 1017.6 1017.6 0.2
23/07:30am 9.7 8.0 8.3 91 0.7 NNE 7 9 4 5 1017.6 1017.6 0.2
23/07:00am 9.4 7.8 8.2 92 0.6 ENE 6 7 3 4 1017.5 1017.5 0.2
23/06:32am 9.0 7.4 7.8 92 0.6 ENE 6 7 3 4 1017.3 1017.3 0.2
23/06:30am 9.0 7.4 7.8 92 0.6 E 6 7 3 4 1017.3 1017.3 0.2
23/06:00am 9.2 7.0 8.0 92 0.6 ESE 9 11 5 6 1017.2 1017.2 0.2
23/05:30am 9.2 7.1 8.1 93 0.5 SE 9 11 5 6 1017.1 1017.1 0.2
23/05:00am 9.2 7.1 8.1 93 0.5 SE 9 11 5 6 1016.9 1016.9 0.2
23/04:30am 9.2 6.7 8.1 93 0.5 ESE 11 13 6 7 1016.9 1016.9 0.2
23/04:00am 9.2 6.3 8.1 93 0.5 SE 13 15 7 8 1017.0 1017.0 0.2
23/03:30am 9.3 7.2 8.2 93 0.5 SE 9 11 5 6 1017.0 1017.0 0.2
23/03:00am 9.3 6.4 8.1 92 0.6 SE 13 17 7 9 1017.1 1017.1 0.2
23/02:30am 9.2 5.8 7.8 91 0.7 SSE 15 20 8 11 1017.1 1017.1 0.2
23/02:00am 9.1 6.1 7.9 92 0.6 SSE 13 17 7 9 1017.5 1017.5 0.2
23/01:30am 9.1 6.6 8.0 93 0.5 S 11 13 6 7 1017.9 1017.9 0.2
23/01:26am 9.1 6.6 8.0 93 0.5 S 11 17 6 9 1018.0 1018.0 0.2
23/01:00am 9.1 6.1 7.9 92 0.6 SSW 13 17 7 9 1018.1 1018.1 0.2
23/12:42am 9.3 5.5 7.7 90 0.8 SSW 17 20 9 11 1018.2 1018.2 0.2
23/12:30am 9.5 6.5 7.8 89 0.8 S 13 20 7 11 1018.2 1018.2 0.2
23/12:00am 9.5 6.5 7.9 90 0.8 S 13 20 7 11 1018.1 1018.1 0.2
 
Date/Time
EST
Temp
°C
App
Temp
°C
Dew
Point
°C
Rel
Hum
%
Delta-T
°C
Wind Press
QNH
hPa
Press
MSL
hPa
Rain since
9am
mm
Dir  Spd
km/h
Gust
km/h
Spd
kts
Gust
kts
22/11:30pm 9.4 6.1 8.2 92 0.6 SSW 15 19 8 10 1018.3 1018.3 0.2
22/11:00pm 9.4 6.5 8.0 91 0.7 SSW 13 19 7 10 1018.4 1018.4 0.2
22/10:47pm 9.5 6.6 8.1 91 0.7 S 13 19 7 10 1018.4 1018.4 0.2
22/10:44pm 9.5 6.6 8.1 91 0.7 S 13 17 7 9 1018.4 1018.4 0.2
22/10:31pm 9.5 7.0 8.3 92 0.6 S 11 19 6 10 1018.5 1018.5 0.2
22/10:30pm 9.5 6.6 8.3 92 0.6 S 13 19 7 10 1018.5 1018.5 0.2
22/10:00pm 9.4 6.5 8.2 92 0.6 S 13 19 7 10 1018.5 1018.5 0.2
22/09:31pm 9.3 6.4 8.1 92 0.6 SSW 13 19 7 10 1018.7 1018.7 0.2
22/09:30pm 9.3 6.4 8.1 92 0.6 SSW 13 19 7 10 1018.7 1018.7 0.2
22/09:28pm 9.3 6.4 8.1 92 0.6 SSW 13 17 7 9 1018.6 1018.6 0.2
22/09:00pm 9.5 5.8 8.1 91 0.7 SSW 17 22 9 12 1018.7 1018.7 0.0
22/08:47pm 9.8 6.1 8.1 89 0.8 SSW 17 24 9 13 1018.7 1018.7 0.0

Other Formats:

Comma delimited format used in spreadsheet applications
http://www.bom.gov.au/fwo/IDT60801/IDT60801.94956.axf

JavaScript Object Notation format (JSON) in row-major order
http://www.bom.gov.au/fwo/IDT60801/IDT60801.94956.json